createdAt,value
2022-09-07T00:01:10.499Z,1.02
2022-09-07T00:03:37.336Z,1.45
2022-09-07T00:06:12.745Z,1.40
2022-09-07T00:08:41.518Z,1.63
2022-09-07T00:11:14.313Z,1.30
2022-09-07T00:13:43.475Z,1.50
2022-09-07T00:16:17.366Z,0.85
2022-09-07T00:18:46.230Z,0.90
2022-09-07T00:21:15.744Z,1.60
2022-09-07T00:23:42.797Z,1.25
2022-09-07T00:26:20.517Z,1.05
2022-09-07T00:28:48.478Z,1.27
2022-09-07T00:31:22.698Z,1.65
2022-09-07T00:33:51.989Z,1.38
2022-09-07T00:36:21.633Z,1.13
2022-09-07T00:38:48.550Z,1.30
2022-09-07T00:41:16.683Z,1.13
2022-09-07T00:43:48.875Z,1.40
2022-09-07T00:46:22.401Z,1.60
2022-09-07T00:49:17.351Z,1.48
2022-09-07T00:51:53.722Z,1.23
2022-09-07T00:54:44.842Z,1.73
2022-09-07T00:57:12.202Z,0.98
2022-09-07T00:59:48.110Z,1.00
2022-09-07T01:02:17.549Z,1.77
2022-09-07T01:04:49.750Z,1.13
2022-09-07T01:07:16.620Z,1.15
2022-09-07T01:09:46.857Z,1.33
2022-09-07T01:12:14.312Z,1.40
2022-09-07T01:14:46.593Z,1.15
2022-09-07T01:17:49.278Z,1.30
2022-09-07T01:20:50.830Z,1.42
2022-09-07T01:23:55.280Z,1.40
2022-09-07T01:26:50.184Z,1.00
2022-09-07T01:29:37.633Z,1.75
2022-09-07T01:32:41.806Z,1.65
2022-09-07T01:35:22.365Z,1.20
2022-09-07T01:38:15.010Z,1.77
2022-09-07T01:41:14.606Z,1.53
2022-09-07T01:44:12.229Z,1.30
2022-09-07T01:46:52.959Z,1.50
2022-09-07T01:49:25.346Z,1.85
2022-09-07T01:51:59.326Z,1.50
2022-09-07T01:54:39.145Z,1.33
2022-09-07T01:57:15.022Z,1.20
2022-09-07T01:59:48.794Z,1.73
2022-09-07T02:02:22.118Z,1.42
2022-09-07T02:05:04.054Z,1.40
2022-09-07T02:07:44.041Z,1.15
2022-09-07T02:10:16.782Z,1.60
2022-09-07T02:12:53.228Z,1.42
2022-09-07T02:15:39.273Z,1.27
2022-09-07T02:18:09.051Z,1.23
2022-09-07T02:20:39.363Z,1.45
2022-09-07T02:23:17.590Z,1.77
2022-09-07T02:25:53.717Z,1.77
2022-09-07T02:28:29.774Z,1.60
2022-09-07T02:30:56.813Z,1.40
2022-09-07T02:33:24.295Z,1.98
2022-09-07T02:35:52.164Z,1.48
2022-09-07T02:38:19.610Z,1.13
2022-09-07T02:40:54.987Z,1.38
2022-09-07T02:43:23.540Z,1.77
2022-09-07T02:46:30.461Z,1.58
2022-09-07T02:49:19.415Z,1.70
2022-09-07T02:51:55.028Z,1.15
2022-09-07T02:54:52.903Z,1.10
2022-09-07T02:57:49.908Z,1.00
2022-09-07T03:00:25.977Z,1.60
2022-09-07T03:03:21.013Z,1.17
2022-09-07T03:06:04.996Z,2.17
2022-09-07T03:08:51.009Z,1.05
2022-09-07T03:11:18.550Z,1.40
2022-09-07T03:13:45.341Z,1.15
2022-09-07T03:16:14.637Z,1.58
2022-09-07T03:18:43.157Z,1.75
2022-09-07T03:21:10.974Z,1.48
2022-09-07T03:23:37.879Z,1.50
2022-09-07T03:26:05.416Z,1.50
2022-09-07T03:28:32.353Z,1.70
2022-09-07T03:31:01.394Z,1.35
2022-09-07T03:33:28.197Z,1.63
2022-09-07T03:36:01.720Z,1.30
2022-09-07T03:38:30.689Z,1.60
2022-09-07T03:41:03.349Z,1.55
2022-09-07T03:43:31.232Z,1.20
2022-09-07T03:46:04.636Z,1.60
2022-09-07T03:48:35.593Z,1.30
2022-09-07T03:51:07.272Z,1.88
2022-09-07T03:53:37.188Z,2.28
2022-09-07T03:56:12.473Z,1.50
2022-09-07T03:58:39.659Z,1.92
2022-09-07T04:01:13.318Z,1.60
2022-09-07T04:03:40.157Z,1.73
2022-09-07T04:06:07.085Z,1.05
2022-09-07T04:08:36.224Z,1.02
2022-09-07T04:11:06.404Z,1.50
2022-09-07T04:13:35.889Z,1.30
2022-09-07T04:16:23.587Z,1.58
2022-09-07T04:18:51.824Z,1.77
2022-09-07T04:21:18.957Z,1.23
2022-09-07T04:23:45.989Z,1.80
2022-09-07T04:26:29.126Z,1.67
2022-09-07T04:28:56.776Z,1.48
2022-09-07T04:31:24.706Z,1.38
2022-09-07T04:33:54.807Z,1.50
2022-09-07T04:36:24.928Z,1.00
2022-09-07T04:39:00.869Z,1.40
2022-09-07T04:41:31.156Z,1.63
2022-09-07T04:44:02.345Z,1.50
2022-09-07T04:46:33.907Z,1.48
2022-09-07T04:49:07.073Z,1.92
2022-09-07T04:51:35.359Z,1.85
2022-09-07T04:54:04.581Z,1.60
2022-09-07T04:56:32.717Z,1.73
2022-09-07T04:59:01.949Z,1.65
2022-09-07T05:01:29.616Z,1.67
2022-09-07T05:03:56.454Z,1.90
2022-09-07T05:06:23.810Z,1.50
2022-09-07T05:08:54.426Z,1.65
2022-09-07T05:11:28.448Z,2.90
2022-09-07T05:14:00.709Z,1.92
2022-09-07T05:16:28.922Z,1.50
2022-09-07T05:19:01.757Z,3.15
2022-09-07T05:21:35.280Z,2.08
2022-09-07T05:24:04.113Z,1.95
2022-09-07T05:26:34.150Z,2.03
2022-09-07T05:32:08.653Z,1.63
2022-09-07T05:34:35.534Z,1.90
2022-09-07T05:37:02.736Z,1.50
2022-09-07T05:39:29.796Z,1.58
2022-09-07T05:41:56.912Z,2.33
2022-09-07T05:47:11.842Z,2.60
2022-09-07T05:49:38.646Z,1.55
2022-09-07T05:52:05.494Z,1.88
2022-09-07T05:54:32.286Z,1.40
2022-09-07T05:56:59.081Z,1.40
2022-09-07T05:59:25.881Z,1.92
2022-09-07T06:01:53.335Z,1.88
2022-09-07T06:04:20.323Z,1.58
2022-09-07T06:06:59.255Z,2.08
2022-09-07T06:09:34.449Z,1.90
2022-09-07T06:12:05.423Z,1.70
2022-09-07T06:14:33.539Z,2.03
2022-09-07T06:17:00.546Z,1.73
2022-09-07T06:19:27.368Z,1.50
2022-09-07T06:21:54.302Z,2.13
2022-09-07T06:24:21.120Z,1.67
2022-09-07T06:26:47.925Z,1.95
2022-09-07T06:29:14.851Z,1.75
2022-09-07T06:34:29.603Z,2.15
2022-09-07T06:36:56.778Z,1.63
2022-09-07T06:39:23.604Z,2.00
2022-09-07T06:44:25.315Z,2.78
2022-09-07T06:47:07.476Z,2.33
2022-09-07T06:49:34.329Z,2.33
2022-09-07T06:52:01.113Z,2.83
2022-09-07T06:57:14.833Z,2.70
2022-09-07T06:59:41.661Z,2.78
2022-09-07T07:02:13.610Z,3.40
2022-09-07T07:04:41.369Z,2.88
2022-09-07T07:07:15.052Z,3.20
2022-09-07T07:09:42.625Z,2.85
2022-09-07T07:12:10.876Z,2.88
2022-09-07T07:14:41.087Z,3.75
2022-09-07T07:17:11.138Z,3.92
2022-09-07T07:19:37.910Z,4.30
2022-09-07T07:22:18.784Z,5.03
2022-09-07T07:24:51.512Z,4.68
2022-09-07T07:27:18.335Z,3.60
2022-09-07T07:29:46.203Z,4.18
2022-09-07T07:32:12.986Z,4.10
2022-09-07T07:34:39.743Z,4.55
2022-09-07T07:37:06.736Z,3.63
2022-09-07T07:42:21.222Z,3.42
2022-09-07T07:44:48.736Z,3.22
2022-09-07T07:47:15.827Z,2.85
2022-09-07T07:49:42.686Z,2.88
2022-09-07T07:54:56.342Z,2.22
2022-09-07T07:57:23.319Z,2.38
2022-09-07T07:59:50.170Z,2.42
2022-09-07T08:02:17.648Z,2.50
2022-09-07T08:04:44.821Z,2.00
2022-09-07T08:07:15.269Z,2.70
2022-09-07T08:09:44.588Z,2.17
2022-09-07T08:12:16.727Z,2.25
2022-09-07T08:14:43.935Z,1.97
2022-09-07T08:17:15.019Z,2.17
2022-09-07T08:19:42.341Z,2.35
2022-09-07T08:22:10.906Z,2.67
2022-09-07T08:24:37.871Z,2.58
2022-09-07T08:27:05.007Z,1.60
2022-09-07T08:29:34.513Z,2.00
2022-09-07T08:32:04.542Z,2.55
2022-09-07T08:34:31.385Z,2.50
2022-09-07T08:36:58.407Z,3.00
2022-09-07T08:39:25.130Z,2.08
2022-09-07T08:41:51.736Z,2.38
2022-09-07T08:44:22.965Z,2.70
2022-09-07T08:46:56.494Z,1.73
2022-09-07T08:49:56.842Z,2.47
2022-09-07T08:52:39.106Z,2.53
2022-09-07T08:55:19.488Z,2.47
2022-09-07T08:58:51.323Z,2.40
2022-09-07T09:01:32.558Z,2.40
2022-09-07T09:04:17.011Z,2.78
2022-09-07T09:07:10.486Z,2.25
2022-09-07T09:10:10.730Z,2.05
2022-09-07T09:13:01.806Z,2.45
2022-09-07T09:15:44.854Z,2.60
2022-09-07T09:18:33.718Z,2.58
2022-09-07T09:21:01.272Z,2.72
2022-09-07T09:23:40.541Z,2.10
2022-09-07T09:26:13.067Z,2.60
2022-09-07T09:28:40.246Z,2.10
2022-09-07T09:31:15.863Z,2.03
2022-09-07T09:33:42.694Z,1.95
2022-09-07T09:36:31.782Z,1.70
2022-09-07T09:38:58.645Z,1.98
2022-09-07T09:41:27.063Z,2.60
2022-09-07T09:43:56.529Z,2.10
2022-09-07T09:46:34.363Z,1.83
2022-09-07T09:49:05.451Z,1.40
2022-09-07T09:54:43.928Z,1.50
2022-09-07T09:57:36.712Z,1.70
2022-09-07T10:00:10.519Z,1.67
2022-09-07T10:05:58.449Z,1.63
2022-09-07T10:08:33.421Z,1.92
2022-09-07T10:11:06.231Z,2.15
2022-09-07T10:13:46.886Z,1.52
2022-09-07T10:16:15.109Z,1.90
2022-09-07T10:18:58.810Z,1.42
2022-09-07T10:21:32.922Z,1.45
2022-09-07T10:24:05.736Z,1.50
2022-09-07T10:26:38.308Z,1.20
2022-09-07T10:29:12.557Z,1.40
2022-09-07T10:32:03.071Z,1.20
2022-09-07T10:34:48.507Z,1.08
2022-09-07T10:37:48.629Z,1.38
2022-09-07T10:40:53.072Z,1.20
2022-09-07T10:43:35.235Z,1.25
2022-09-07T10:49:33.721Z,1.35
2022-09-07T10:52:17.930Z,1.20
2022-09-07T10:54:55.280Z,1.00
2022-09-07T10:58:00.955Z,1.00
2022-09-07T11:00:49.622Z,1.10
2022-09-07T11:03:54.446Z,0.98
2022-09-07T11:06:41.525Z,0.98
2022-09-07T11:09:46.022Z,0.77
2022-09-07T11:12:36.962Z,0.85
2022-09-07T11:15:12.365Z,0.90
2022-09-07T11:17:49.355Z,1.38
2022-09-07T11:20:45.377Z,0.73
2022-09-07T11:23:20.316Z,1.67
2022-09-07T11:25:58.817Z,1.55
2022-09-07T11:29:29.178Z,1.05
2022-09-07T11:31:45.290Z,0.82
2022-09-07T11:34:26.793Z,0.90
2022-09-07T11:37:03.528Z,1.30
2022-09-07T11:39:36.545Z,0.93
2022-09-07T11:48:05.028Z,0.70
2022-09-07T11:50:39.378Z,0.57
2022-09-07T11:53:19.009Z,1.25
2022-09-07T11:55:54.198Z,0.70
2022-09-07T11:58:20.846Z,1.08
2022-09-07T12:01:02.360Z,0.80
2022-09-07T12:04:06.624Z,1.00
2022-09-07T12:06:54.553Z,0.90
2022-09-07T12:09:46.453Z,0.95
2022-09-07T12:12:13.155Z,0.88
2022-09-07T12:15:30.605Z,0.80
2022-09-07T12:18:02.827Z,0.60
2022-09-07T12:20:48.973Z,0.80
2022-09-07T12:23:15.638Z,0.60
2022-09-07T12:25:48.194Z,0.80
2022-09-07T12:28:24.107Z,0.57
2022-09-07T12:30:56.187Z,1.00
2022-09-07T12:33:29.653Z,0.50
2022-09-07T12:35:59.090Z,0.80
2022-09-07T12:38:31.680Z,0.90
2022-09-07T12:41:04.469Z,0.80
2022-09-07T12:43:44.426Z,0.80
2022-09-07T12:46:40.929Z,0.60
2022-09-07T12:50:06.713Z,0.57
2022-09-07T12:53:08.866Z,0.60
2022-09-07T12:59:05.168Z,0.77
2022-09-07T13:01:55.988Z,0.68
2022-09-07T13:04:50.251Z,0.65
2022-09-07T13:07:51.569Z,0.82
2022-09-07T13:10:33.011Z,0.82
2022-09-07T13:13:17.793Z,0.57
2022-09-07T13:15:48.581Z,0.77
2022-09-07T13:18:27.502Z,0.70
2022-09-07T13:21:09.078Z,0.60
2022-09-07T13:23:45.489Z,0.82
2022-09-07T13:26:51.848Z,1.00
2022-09-07T13:29:24.638Z,0.60
2022-09-07T13:32:17.857Z,0.70
2022-09-07T13:34:55.203Z,0.50
2022-09-07T13:37:27.482Z,0.70
2022-09-07T13:39:58.109Z,0.50
2022-09-07T13:42:34.186Z,1.05
2022-09-07T13:45:07.326Z,1.05
2022-09-07T13:48:01.619Z,0.60
2022-09-07T13:50:34.426Z,0.80
2022-09-07T13:53:36.575Z,0.55
2022-09-07T13:56:36.850Z,0.55
2022-09-07T13:59:22.884Z,0.80
2022-09-07T14:01:50.779Z,0.65
2022-09-07T14:04:32.328Z,0.73
2022-09-07T14:07:13.142Z,0.68
2022-09-07T14:09:40.349Z,1.13
2022-09-07T14:12:16.749Z,0.90
2022-09-07T14:14:43.520Z,0.80
2022-09-07T14:17:16.859Z,0.82
2022-09-07T14:19:49.871Z,1.10
2022-09-07T14:22:24.619Z,0.82
2022-09-07T14:24:57.307Z,0.75
2022-09-07T14:27:36.857Z,1.40
2022-09-07T14:30:31.995Z,0.75
2022-09-07T14:33:17.323Z,1.00
2022-09-07T14:35:44.363Z,0.95
2022-09-07T14:38:14.244Z,0.85
2022-09-07T14:40:41.517Z,0.65
2022-09-07T14:43:27.716Z,0.75
2022-09-07T14:45:54.615Z,0.90
2022-09-07T14:48:31.496Z,0.88
2022-09-07T14:51:19.349Z,1.05
2022-09-07T14:53:55.869Z,0.70
2022-09-07T14:56:30.333Z,0.70
2022-09-07T14:58:57.155Z,0.80
2022-09-07T15:01:41.559Z,0.95
2022-09-07T15:04:21.275Z,0.70
2022-09-07T15:07:03.656Z,0.70
2022-09-07T15:09:37.105Z,0.95
2022-09-07T15:12:24.892Z,0.90
2022-09-07T15:15:21.435Z,0.75
2022-09-07T15:17:48.674Z,0.70
2022-09-07T15:20:47.560Z,0.70
2022-09-07T15:23:19.556Z,0.88
2022-09-07T15:25:53.562Z,0.90
2022-09-07T15:34:20.620Z,1.00
2022-09-07T15:36:51.013Z,1.13
2022-09-07T15:39:23.508Z,1.15
2022-09-07T15:41:51.640Z,1.08
2022-09-07T15:44:24.314Z,0.93
2022-09-07T15:49:47.412Z,0.70
2022-09-07T15:52:17.093Z,0.65
2022-09-07T15:54:44.148Z,1.20
2022-09-07T15:59:57.990Z,0.90
2022-09-07T16:05:11.636Z,1.20
2022-09-07T16:10:26.617Z,0.80
2022-09-07T16:13:02.251Z,1.50
2022-09-07T16:15:30.881Z,0.85
2022-09-07T16:17:57.681Z,1.10
2022-09-07T16:20:24.474Z,1.23
2022-09-07T16:25:39.510Z,1.27
2022-09-07T16:28:07.302Z,1.10
2022-09-07T16:30:38.927Z,0.80
2022-09-07T16:33:05.956Z,0.90
2022-09-07T16:35:33.057Z,1.27
2022-09-07T16:40:46.891Z,0.80
2022-09-07T16:43:13.682Z,1.33
2022-09-07T16:48:27.182Z,1.10
2022-09-07T16:51:01.240Z,0.90
2022-09-07T16:53:30.860Z,1.30
2022-09-07T16:56:05.998Z,1.30
2022-09-07T16:58:36.728Z,1.35
2022-09-07T17:01:06.717Z,0.90
2022-09-07T17:03:34.284Z,1.23
2022-09-07T17:06:01.198Z,1.38
2022-09-07T17:08:28.355Z,1.45
2022-09-07T17:11:23.708Z,1.15
2022-09-07T17:13:51.979Z,1.25
2022-09-07T17:16:23.301Z,1.27
2022-09-07T17:21:40.135Z,1.20
2022-09-07T17:24:09.778Z,1.50
2022-09-07T17:26:36.981Z,1.35
2022-09-07T17:29:04.159Z,1.38
2022-09-07T17:34:21.718Z,1.45
2022-09-07T17:36:48.568Z,1.17
2022-09-07T17:39:17.608Z,0.77
2022-09-07T17:41:47.382Z,0.90
2022-09-07T17:44:15.299Z,1.63
2022-09-07T17:46:42.299Z,1.13
2022-09-07T17:49:12.493Z,1.13
2022-09-07T17:51:39.835Z,1.55
2022-09-07T17:54:11.689Z,1.00
2022-09-07T17:56:40.472Z,1.30
2022-09-07T18:01:55.214Z,1.02
2022-09-07T18:04:22.920Z,0.93
2022-09-07T18:06:49.873Z,1.40
2022-09-07T18:09:17.508Z,1.52
2022-09-07T18:11:45.829Z,1.67
2022-09-07T18:14:14.360Z,1.73
2022-09-07T18:16:43.034Z,1.40
2022-09-07T18:19:11.897Z,1.42
2022-09-07T18:21:42.160Z,1.45
2022-09-07T18:24:18.258Z,1.33
2022-09-07T18:26:52.034Z,1.50
2022-09-07T18:29:32.401Z,1.30
2022-09-07T18:32:01.215Z,1.50
2022-09-07T18:34:31.889Z,1.80
2022-09-07T18:36:59.731Z,1.67
2022-09-07T18:39:27.451Z,2.00
2022-09-07T18:41:55.072Z,1.63
2022-09-07T18:47:08.894Z,1.55
2022-09-07T18:49:35.662Z,2.08
2022-09-07T18:54:50.537Z,1.92
2022-09-07T18:57:17.351Z,1.38
2022-09-07T18:59:44.159Z,1.40
2022-09-07T19:02:11.309Z,2.28
2022-09-07T19:07:29.652Z,1.75
2022-09-07T19:09:57.185Z,1.38
2022-09-07T19:12:24.573Z,1.60
2022-09-07T19:14:51.713Z,1.60
2022-09-07T19:17:19.089Z,1.75
2022-09-07T19:19:45.851Z,1.35
2022-09-07T19:22:12.646Z,1.65
2022-09-07T19:24:39.382Z,1.80
2022-09-07T19:27:07.341Z,1.73
2022-09-07T19:29:34.183Z,1.77
2022-09-07T19:32:07.803Z,1.95
2022-09-07T19:34:40.459Z,1.52
2022-09-07T19:37:10.213Z,1.73
2022-09-07T19:39:37.209Z,1.75
2022-09-07T19:42:06.140Z,2.00
2022-09-07T19:44:33.369Z,1.67
2022-09-07T19:47:01.003Z,2.15
2022-09-07T19:49:28.714Z,1.58
2022-09-07T19:51:55.559Z,1.90
2022-09-07T19:54:22.377Z,1.63
2022-09-07T19:56:49.253Z,1.85
2022-09-07T19:59:16.162Z,2.17
2022-09-07T20:01:46.498Z,1.42
2022-09-07T20:04:20.387Z,1.70
2022-09-07T20:06:50.272Z,1.98
2022-09-07T20:09:20.314Z,1.88
2022-09-07T20:11:48.165Z,1.55
2022-09-07T20:14:19.274Z,1.38
2022-09-07T20:16:46.065Z,1.98
2022-09-07T20:19:15.297Z,1.88
2022-09-07T20:21:42.822Z,1.40
2022-09-07T20:24:12.495Z,2.42
2022-09-07T20:26:39.471Z,2.83
2022-09-07T20:29:26.164Z,2.25
2022-09-07T20:31:54.087Z,2.50
2022-09-07T20:34:21.122Z,2.25
2022-09-07T20:36:50.472Z,2.25
2022-09-07T20:39:17.694Z,2.08
2022-09-07T20:41:44.567Z,1.60
2022-09-07T20:44:11.795Z,1.38
2022-09-07T20:46:39.088Z,1.83
2022-09-07T20:49:05.899Z,2.65
2022-09-07T20:51:32.901Z,2.28
2022-09-07T20:53:59.672Z,1.75
2022-09-07T20:56:30.385Z,1.77
2022-09-07T20:59:00.415Z,1.73
2022-09-07T21:01:28.609Z,1.95
2022-09-07T21:03:58.056Z,1.95
2022-09-07T21:06:26.976Z,1.80
2022-09-07T21:08:56.962Z,1.40
2022-09-07T21:11:32.467Z,1.60
2022-09-07T21:14:08.703Z,1.40
2022-09-07T21:16:36.301Z,1.50
2022-09-07T21:19:07.219Z,2.25
2022-09-07T21:21:38.921Z,1.60
2022-09-07T21:24:07.883Z,1.63
2022-09-07T21:26:34.838Z,1.75
2022-09-07T21:29:05.256Z,1.98
2022-09-07T21:31:34.302Z,1.58
2022-09-07T21:34:02.489Z,1.50
2022-09-07T21:36:29.740Z,1.77
2022-09-07T21:38:57.199Z,1.50
2022-09-07T21:41:25.192Z,1.65
2022-09-07T21:43:56.985Z,2.03
2022-09-07T21:46:24.479Z,1.30
2022-09-07T21:48:51.319Z,1.77
2022-09-07T21:51:18.653Z,1.30
2022-09-07T21:53:45.419Z,1.08
2022-09-07T21:56:14.366Z,1.35
2022-09-07T21:58:43.703Z,1.80
2022-09-07T22:01:17.267Z,1.77
2022-09-07T22:03:46.460Z,1.42
2022-09-07T22:06:14.435Z,1.60
2022-09-07T22:08:42.633Z,1.42
2022-09-07T22:11:15.249Z,1.58
2022-09-07T22:13:43.415Z,1.48
2022-09-07T22:16:10.436Z,1.83
2022-09-07T22:18:38.449Z,2.25
2022-09-07T22:21:07.904Z,1.38
2022-09-07T22:23:39.149Z,1.60
2022-09-07T22:26:07.106Z,1.75
2022-09-07T22:28:34.939Z,1.33
2022-09-07T22:31:09.557Z,1.45
2022-09-07T22:33:36.317Z,1.38
2022-09-07T22:36:18.897Z,1.63
2022-09-07T22:38:48.941Z,1.60
2022-09-07T22:41:27.967Z,1.30
2022-09-07T22:43:56.346Z,1.30
2022-09-07T22:46:26.380Z,2.80
2022-09-07T22:48:58.534Z,2.13
2022-09-07T22:51:26.830Z,2.30
2022-09-07T22:53:55.333Z,1.30
2022-09-07T22:56:26.244Z,1.73
2022-09-07T22:58:57.001Z,1.80
2022-09-07T23:01:24.784Z,1.58
2022-09-07T23:03:51.656Z,1.35
2022-09-07T23:06:24.552Z,1.75
2022-09-07T23:08:52.653Z,1.42
2022-09-07T23:11:19.887Z,1.40
2022-09-07T23:13:52.777Z,1.30
2022-09-07T23:16:20.691Z,1.88
2022-09-07T23:18:48.426Z,1.60
2022-09-07T23:21:17.132Z,1.38
2022-09-07T23:23:44.093Z,0.93
2022-09-07T23:26:10.880Z,1.40
2022-09-07T23:28:37.577Z,1.55
2022-09-07T23:31:04.339Z,1.30
2022-09-07T23:33:31.704Z,1.20
2022-09-07T23:36:02.160Z,1.48
2022-09-07T23:38:30.108Z,1.27
2022-09-07T23:40:57.880Z,1.15
2022-09-07T23:43:27.503Z,1.13
2022-09-07T23:45:54.710Z,1.40
2022-09-07T23:48:23.093Z,1.40
2022-09-07T23:50:50.108Z,1.40
2022-09-07T23:53:17.980Z,1.55
2022-09-07T23:55:46.650Z,1.67
2022-09-07T23:58:13.442Z,1.13
